createdAt,value
2018-08-22T00:00:52.377Z,0
2018-08-22T00:02:08.279Z,0
2018-08-22T00:03:24.212Z,0
2018-08-22T00:04:40.143Z,0
2018-08-22T00:05:56.224Z,0
2018-08-22T00:07:12.102Z,0
2018-08-22T00:08:28.025Z,0
2018-08-22T00:09:43.971Z,0
2018-08-22T00:10:59.875Z,0
2018-08-22T00:12:15.756Z,0
2018-08-22T00:13:31.670Z,0
2018-08-22T00:14:47.579Z,0
2018-08-22T00:16:03.491Z,0
2018-08-22T00:17:19.384Z,0
2018-08-22T00:18:35.346Z,0
2018-08-22T00:19:51.314Z,0
2018-08-22T00:21:07.167Z,0
2018-08-22T00:22:23.146Z,0
2018-08-22T00:23:39.045Z,0
2018-08-22T00:24:54.971Z,0
2018-08-22T00:26:10.912Z,0
2018-08-22T00:27:26.805Z,0
2018-08-22T00:28:42.745Z,0
2018-08-22T00:29:58.655Z,0
2018-08-22T00:31:14.537Z,0
2018-08-22T00:32:30.417Z,0
2018-08-22T00:33:46.317Z,0
2018-08-22T00:35:02.210Z,0
2018-08-22T00:36:18.148Z,0
2018-08-22T00:37:34.042Z,0
2018-08-22T00:38:49.996Z,0
2018-08-22T00:40:06.067Z,0
2018-08-22T00:41:21.985Z,0
2018-08-22T00:42:37.892Z,0
2018-08-22T00:43:53.914Z,0
2018-08-22T00:45:09.877Z,0
2018-08-22T00:46:25.768Z,0
2018-08-22T00:47:41.707Z,0
2018-08-22T00:48:57.600Z,0
2018-08-22T00:50:13.526Z,0
2018-08-22T00:51:29.465Z,0
2018-08-22T00:52:45.493Z,0
2018-08-22T00:54:01.399Z,0
2018-08-22T00:55:17.331Z,0
2018-08-22T00:56:33.342Z,0
2018-08-22T00:57:49.330Z,0
2018-08-22T00:59:05.201Z,0
2018-08-22T01:00:21.171Z,0
2018-08-22T01:01:37.108Z,0
2018-08-22T01:02:53.048Z,0
2018-08-22T01:04:08.930Z,0
2018-08-22T01:05:24.808Z,0
2018-08-22T01:06:40.714Z,0
2018-08-22T01:07:56.656Z,0
2018-08-22T01:09:12.564Z,0
2018-08-22T01:10:28.480Z,0
2018-08-22T01:11:44.390Z,0
2018-08-22T01:13:00.321Z,0
2018-08-22T01:14:16.237Z,0
2018-08-22T01:15:32.169Z,0
2018-08-22T01:16:48.099Z,0
2018-08-22T01:18:04.128Z,0
2018-08-22T01:19:20.164Z,0
2018-08-22T01:20:36.075Z,0
2018-08-22T01:21:51.953Z,0
2018-08-22T01:23:07.863Z,0
2018-08-22T01:24:23.862Z,0
2018-08-22T01:25:39.815Z,0
2018-08-22T01:26:55.844Z,0
2018-08-22T01:28:11.755Z,0
2018-08-22T01:29:27.679Z,0
2018-08-22T01:30:43.578Z,0
2018-08-22T01:31:59.481Z,0
2018-08-22T01:33:15.392Z,0
2018-08-22T01:34:31.354Z,0
2018-08-22T01:35:47.296Z,0
2018-08-22T01:37:03.297Z,0
2018-08-22T01:38:19.321Z,0
2018-08-22T01:39:35.374Z,0
2018-08-22T01:40:51.277Z,0
2018-08-22T01:42:07.193Z,0
2018-08-22T01:43:23.154Z,0
2018-08-22T01:44:39.075Z,0
2018-08-22T01:45:54.982Z,0
2018-08-22T01:47:10.886Z,0
2018-08-22T01:48:26.790Z,0
2018-08-22T01:49:42.707Z,0
2018-08-22T01:50:58.748Z,0
2018-08-22T01:52:14.731Z,0
2018-08-22T01:53:30.611Z,0
2018-08-22T01:54:46.556Z,0
2018-08-22T01:56:02.623Z,0
2018-08-22T01:57:18.655Z,0
2018-08-22T01:58:34.593Z,0
2018-08-22T01:59:50.586Z,0
2018-08-22T02:01:06.582Z,0
2018-08-22T02:02:22.460Z,0
2018-08-22T02:03:38.320Z,0
2018-08-22T02:04:54.203Z,0
2018-08-22T02:06:10.116Z,0
2018-08-22T02:07:25.999Z,0
2018-08-22T02:08:41.964Z,0
2018-08-22T02:09:57.842Z,0
2018-08-22T02:11:13.764Z,0
2018-08-22T02:12:29.695Z,0
2018-08-22T02:13:45.604Z,0
2018-08-22T02:15:01.577Z,0
2018-08-22T02:16:17.559Z,0
2018-08-22T02:17:33.440Z,0
2018-08-22T02:18:49.364Z,0
2018-08-22T02:20:05.365Z,0
2018-08-22T02:21:21.277Z,0
2018-08-22T02:22:37.196Z,0
2018-08-22T02:23:53.198Z,0
2018-08-22T02:25:09.235Z,0
2018-08-22T02:26:25.066Z,0
2018-08-22T02:27:40.957Z,0
2018-08-22T02:28:57.007Z,0
2018-08-22T02:30:12.901Z,0
2018-08-22T02:31:28.839Z,0
2018-08-22T02:32:44.739Z,0
2018-08-22T02:34:00.760Z,0
2018-08-22T02:35:16.679Z,0
2018-08-22T02:36:32.588Z,0
2018-08-22T02:37:48.486Z,0
2018-08-22T02:39:04.392Z,0
2018-08-22T02:40:20.415Z,0
2018-08-22T02:41:36.337Z,0
2018-08-22T02:42:52.216Z,0
2018-08-22T02:44:08.168Z,0
2018-08-22T02:45:24.089Z,0
2018-08-22T02:46:40.029Z,0
2018-08-22T02:47:55.940Z,0
2018-08-22T02:49:11.837Z,0
2018-08-22T02:50:27.725Z,0
2018-08-22T02:51:43.634Z,0
2018-08-22T02:52:59.532Z,0
2018-08-22T02:54:15.429Z,0
2018-08-22T02:55:31.461Z,0
2018-08-22T02:56:47.393Z,0
2018-08-22T02:58:03.275Z,0
2018-08-22T02:59:19.187Z,0
2018-08-22T03:00:35.166Z,0
2018-08-22T03:01:51.150Z,0
2018-08-22T03:03:07.054Z,0
2018-08-22T03:04:23.016Z,0
2018-08-22T03:05:39.016Z,0
2018-08-22T03:06:54.936Z,0
2018-08-22T03:08:10.904Z,0
2018-08-22T03:09:26.955Z,0
2018-08-22T03:10:42.929Z,0
2018-08-22T03:11:58.872Z,0
2018-08-22T03:13:14.824Z,0
2018-08-22T03:14:30.862Z,0
2018-08-22T03:15:46.776Z,0
2018-08-22T03:17:02.676Z,0
2018-08-22T03:18:18.640Z,0
2018-08-22T03:19:34.623Z,0
2018-08-22T03:20:50.666Z,0
2018-08-22T03:22:06.595Z,0
2018-08-22T03:23:22.683Z,0
2018-08-22T03:24:38.706Z,0
2018-08-22T03:25:54.624Z,0
2018-08-22T03:27:10.608Z,0
2018-08-22T03:28:26.514Z,0
2018-08-22T03:29:42.411Z,0
2018-08-22T03:30:58.353Z,0
2018-08-22T03:32:14.351Z,0
2018-08-22T03:33:30.371Z,0
2018-08-22T03:34:46.539Z,0
2018-08-22T03:36:02.442Z,0
2018-08-22T03:37:18.404Z,0
2018-08-22T03:38:34.355Z,0
2018-08-22T03:39:50.264Z,0
2018-08-22T03:41:06.150Z,0
2018-08-22T03:42:22.025Z,0
2018-08-22T03:43:37.943Z,0
2018-08-22T03:44:53.844Z,0
2018-08-22T03:46:09.758Z,0
2018-08-22T03:47:25.689Z,0
2018-08-22T03:48:41.684Z,0
2018-08-22T03:49:57.591Z,0
2018-08-22T03:51:13.497Z,0
2018-08-22T03:52:30.195Z,0
2018-08-22T03:53:46.169Z,0
2018-08-22T03:55:02.164Z,0
2018-08-22T03:56:18.097Z,0
2018-08-22T03:57:34.118Z,0
2018-08-22T03:58:50.014Z,0
2018-08-22T04:00:05.993Z,0
2018-08-22T04:01:22.042Z,0
2018-08-22T04:02:37.976Z,1
2018-08-22T04:03:53.904Z,1
2018-08-22T04:05:09.911Z,1
2018-08-22T04:06:25.871Z,1
2018-08-22T04:07:41.775Z,2
2018-08-22T04:08:57.706Z,2
2018-08-22T04:10:13.648Z,2
2018-08-22T04:11:29.628Z,3
2018-08-22T04:12:45.593Z,4
2018-08-22T04:14:01.485Z,5
2018-08-22T04:15:17.463Z,6
2018-08-22T04:16:33.381Z,8
2018-08-22T04:17:49.322Z,9
2018-08-22T04:19:05.283Z,11
2018-08-22T04:20:21.205Z,13
2018-08-22T04:21:37.180Z,15
2018-08-22T04:22:53.245Z,17
2018-08-22T04:24:09.323Z,20
2018-08-22T04:25:25.239Z,23
2018-08-22T04:26:41.149Z,26
2018-08-22T04:27:57.070Z,30
2018-08-22T04:29:13.001Z,34
2018-08-22T04:30:28.884Z,37
2018-08-22T04:31:44.804Z,42
2018-08-22T04:33:00.717Z,47
2018-08-22T04:34:16.671Z,52
2018-08-22T04:35:32.745Z,57
2018-08-22T04:36:48.771Z,63
2018-08-22T04:38:04.800Z,68
2018-08-22T04:39:20.740Z,74
2018-08-22T04:40:36.644Z,81
2018-08-22T04:41:53.703Z,87
2018-08-22T04:43:09.646Z,94
2018-08-22T04:44:25.630Z,101
2018-08-22T04:45:41.556Z,108
2018-08-22T04:46:57.498Z,114
2018-08-22T04:48:13.517Z,122
2018-08-22T04:49:29.490Z,129
2018-08-22T04:50:45.450Z,137
2018-08-22T04:52:01.400Z,147
2018-08-22T04:53:17.329Z,152
2018-08-22T04:54:33.329Z,160
2018-08-22T04:55:49.356Z,168
2018-08-22T04:57:05.358Z,175
2018-08-22T04:58:21.330Z,183
2018-08-22T04:59:37.437Z,190
2018-08-22T05:00:53.416Z,197
2018-08-22T05:02:09.310Z,204
2018-08-22T05:03:25.258Z,212
2018-08-22T05:04:41.188Z,219
2018-08-22T05:05:57.136Z,225
2018-08-22T05:07:13.085Z,232
2018-08-22T05:08:29.068Z,221
2018-08-22T05:09:45.079Z,229
2018-08-22T05:11:00.980Z,235
2018-08-22T05:12:16.930Z,241
2018-08-22T05:13:32.949Z,248
2018-08-22T05:14:48.882Z,255
2018-08-22T05:16:04.801Z,261
2018-08-22T05:17:20.791Z,268
2018-08-22T05:18:36.864Z,275
2018-08-22T05:19:53.030Z,281
2018-08-22T05:21:09.097Z,287
2018-08-22T05:22:25.003Z,295
2018-08-22T05:23:40.929Z,301
2018-08-22T05:24:56.868Z,309
2018-08-22T05:26:12.780Z,314
2018-08-22T05:27:28.725Z,325
2018-08-22T05:28:44.764Z,334
2018-08-22T05:30:00.851Z,340
2018-08-22T05:31:16.738Z,348
2018-08-22T05:32:32.687Z,355
2018-08-22T05:33:48.601Z,363
2018-08-22T05:35:04.515Z,370
2018-08-22T05:36:20.421Z,378
2018-08-22T05:37:36.352Z,385
2018-08-22T05:38:52.267Z,390
2018-08-22T05:40:08.193Z,398
2018-08-22T05:41:24.186Z,407
2018-08-22T05:42:40.222Z,412
2018-08-22T05:43:56.172Z,419
2018-08-22T05:45:12.155Z,427
2018-08-22T05:46:28.058Z,435
2018-08-22T05:47:44.031Z,441
2018-08-22T05:48:59.934Z,448
2018-08-22T05:50:15.882Z,456
2018-08-22T05:51:31.826Z,463
2018-08-22T05:52:47.761Z,472
2018-08-22T05:54:03.796Z,480
2018-08-22T05:55:19.715Z,486
2018-08-22T05:56:35.627Z,496
2018-08-22T05:57:51.635Z,502
2018-08-22T05:59:07.633Z,509
2018-08-22T06:00:23.693Z,518
2018-08-22T06:01:39.611Z,529
2018-08-22T06:02:55.614Z,534
2018-08-22T06:04:11.591Z,542
2018-08-22T06:05:27.528Z,544
2018-08-22T06:06:43.431Z,555
2018-08-22T06:07:59.353Z,565
2018-08-22T06:09:15.390Z,573
2018-08-22T06:10:31.210Z,580
2018-08-22T06:11:47.106Z,586
2018-08-22T06:13:03.009Z,595
2018-08-22T06:14:18.984Z,604
2018-08-22T06:15:34.999Z,615
2018-08-22T06:16:50.828Z,624
2018-08-22T06:18:06.731Z,634
2018-08-22T06:19:22.823Z,641
2018-08-22T06:20:38.756Z,651
2018-08-22T06:21:54.659Z,658
2018-08-22T06:23:10.591Z,669
2018-08-22T06:24:26.520Z,674
2018-08-22T06:25:42.575Z,683
2018-08-22T06:26:58.745Z,689
2018-08-22T06:31:36.313Z,716
2018-08-22T06:32:52.239Z,724
2018-08-22T06:34:08.155Z,733
2018-08-22T06:35:24.138Z,742
2018-08-22T06:36:40.070Z,747
2018-08-22T06:37:55.986Z,755
2018-08-22T06:39:11.941Z,760
2018-08-22T06:40:27.877Z,771
2018-08-22T06:41:43.779Z,779
2018-08-22T06:42:59.716Z,784
2018-08-22T06:44:15.936Z,795
2018-08-22T06:45:31.881Z,801
2018-08-22T06:46:47.845Z,808
2018-08-22T06:48:03.806Z,815
2018-08-22T06:49:19.708Z,820
2018-08-22T06:50:36.016Z,825
2018-08-22T06:51:51.892Z,830
2018-08-22T06:53:07.791Z,837
2018-08-22T06:54:23.704Z,844
2018-08-22T06:55:39.697Z,854
2018-08-22T06:56:55.652Z,867
2018-08-22T06:58:11.683Z,885
2018-08-22T06:59:27.651Z,904
2018-08-22T07:00:43.611Z,935
2018-08-22T07:01:59.589Z,969
2018-08-22T07:03:15.477Z,1003
2018-08-22T07:04:31.374Z,1038
2018-08-22T07:05:47.328Z,1080
2018-08-22T07:07:03.307Z,1121
2018-08-22T07:08:19.320Z,1148
2018-08-22T07:09:35.255Z,1177
2018-08-22T07:10:51.334Z,1206
2018-08-22T07:12:07.264Z,1230
2018-08-22T07:13:23.229Z,1264
2018-08-22T07:14:39.140Z,1291
2018-08-22T07:15:55.104Z,1315
2018-08-22T07:17:11.206Z,1322
2018-08-22T07:18:27.169Z,1361
2018-08-22T07:19:43.192Z,1384
2018-08-22T07:20:59.260Z,1399
2018-08-22T07:22:15.280Z,1406
2018-08-22T07:23:31.251Z,1428
2018-08-22T07:24:47.173Z,1439
2018-08-22T07:26:03.104Z,1434
2018-08-22T07:27:19.047Z,1469
2018-08-22T07:28:34.975Z,1469
2018-08-22T07:29:50.975Z,1456
2018-08-22T07:31:07.036Z,1385
2018-08-22T07:32:23.045Z,1326
2018-08-22T07:33:39.066Z,1289
2018-08-22T07:34:55.072Z,1219
2018-08-22T07:36:11.051Z,1193
2018-08-22T07:37:27.096Z,1176
2018-08-22T07:38:43.249Z,1194
2018-08-22T07:39:59.201Z,1188
2018-08-22T07:41:15.205Z,1205
2018-08-22T07:42:31.218Z,1236
2018-08-22T07:43:47.324Z,1297
2018-08-22T07:45:03.506Z,1385
2018-08-22T07:46:19.513Z,1425
2018-08-22T07:47:35.502Z,1434
2018-08-22T07:48:51.451Z,1391
2018-08-22T07:50:07.499Z,1470
2018-08-22T07:51:23.407Z,1554
2018-08-22T07:52:39.681Z,1614
2018-08-22T07:53:55.655Z,1665
2018-08-22T07:55:11.647Z,1670
2018-08-22T07:56:27.634Z,1702
2018-08-22T07:57:43.595Z,1789
2018-08-22T07:58:59.560Z,1832
2018-08-22T08:00:15.623Z,1842
2018-08-22T08:01:31.455Z,1848
2018-08-22T08:02:47.356Z,1861
2018-08-22T08:04:03.297Z,1869
2018-08-22T08:05:19.269Z,1880
2018-08-22T08:06:35.179Z,1883
2018-08-22T08:07:51.256Z,1904
2018-08-22T08:09:07.275Z,1905
2018-08-22T08:10:23.221Z,1919
2018-08-22T08:11:39.164Z,1908
2018-08-22T08:12:55.200Z,1924
2018-08-22T08:14:11.294Z,1926
2018-08-22T08:15:27.302Z,1941
2018-08-22T08:16:43.312Z,1937
2018-08-22T08:17:59.233Z,1953
2018-08-22T08:19:15.211Z,1945
2018-08-22T08:20:31.222Z,1966
2018-08-22T08:21:47.161Z,1971
2018-08-22T08:23:03.098Z,1971
2018-08-22T08:24:19.052Z,1974
2018-08-22T08:25:35.124Z,1974
2018-08-22T08:26:51.015Z,1988
2018-08-22T08:28:07.068Z,1986
2018-08-22T08:29:23.066Z,1998
2018-08-22T08:30:39.222Z,1995
2018-08-22T08:31:55.163Z,1996
2018-08-22T08:33:11.082Z,1995
2018-08-22T08:34:27.122Z,2006
2018-08-22T08:35:43.030Z,2006
2018-08-22T08:36:58.980Z,1952
2018-08-22T08:38:14.932Z,2015
2018-08-22T08:39:30.900Z,2015
2018-08-22T08:40:46.802Z,2019
2018-08-22T08:42:02.787Z,2022
2018-08-22T08:43:18.753Z,2008
2018-08-22T08:44:34.731Z,2019
2018-08-22T08:45:50.722Z,2006
2018-08-22T08:47:07.655Z,2007
2018-08-22T08:48:23.587Z,2004
2018-08-22T08:49:39.651Z,2001
2018-08-22T08:50:55.470Z,2014
2018-08-22T08:52:11.406Z,2006
2018-08-22T08:53:27.387Z,2005
2018-08-22T08:54:43.259Z,2013
2018-08-22T08:55:59.190Z,2009
2018-08-22T08:57:15.175Z,2003
2018-08-22T08:58:31.102Z,2006
2018-08-22T08:59:47.053Z,2001
2018-08-22T09:01:03.104Z,2000
2018-08-22T09:02:19.127Z,1986
2018-08-22T09:03:35.039Z,2015
2018-08-22T09:04:50.945Z,2017
2018-08-22T09:06:06.890Z,2019
2018-08-22T09:07:22.823Z,2000
2018-08-22T09:08:38.746Z,2019
2018-08-22T09:09:54.659Z,2019
2018-08-22T09:11:10.579Z,2022
2018-08-22T09:12:26.532Z,2007
2018-08-22T09:13:42.468Z,2040
2018-08-22T09:14:58.389Z,2031
2018-08-22T09:16:14.381Z,2031
2018-08-22T09:17:30.400Z,2049
2018-08-22T09:18:46.319Z,2009
2018-08-22T09:20:02.228Z,2032
2018-08-22T09:21:18.157Z,2046
2018-08-22T09:22:34.084Z,2036
2018-08-22T09:23:50.001Z,2047
2018-08-22T09:25:05.897Z,2060
2018-08-22T09:26:21.935Z,2047
2018-08-22T09:27:37.928Z,2063
2018-08-22T09:28:53.959Z,2056
2018-08-22T09:30:09.976Z,2073
2018-08-22T09:31:25.979Z,2066
2018-08-22T09:32:42.116Z,2071
2018-08-22T09:33:58.060Z,2072
2018-08-22T09:35:14.006Z,2078
2018-08-22T09:36:29.922Z,2081
2018-08-22T09:37:45.839Z,2073
2018-08-22T09:39:01.773Z,2081
2018-08-22T09:40:17.841Z,2066
2018-08-22T09:41:33.778Z,2077
2018-08-22T09:42:49.739Z,2084
2018-08-22T09:44:05.644Z,2096
2018-08-22T09:45:21.557Z,2087
2018-08-22T09:46:37.595Z,2104
2018-08-22T09:49:35.008Z,2112
2018-08-22T09:50:50.994Z,2098
2018-08-22T09:52:07.014Z,2079
2018-08-22T09:53:22.919Z,2091
2018-08-22T09:54:38.922Z,2081
2018-08-22T09:55:54.890Z,2080
2018-08-22T09:57:10.800Z,2090
2018-08-22T09:58:26.770Z,2091
2018-08-22T09:59:42.657Z,2094
2018-08-22T10:00:58.587Z,2097
2018-08-22T10:02:14.493Z,2087
2018-08-22T10:03:30.418Z,2075
2018-08-22T10:04:46.356Z,2063
2018-08-22T10:06:02.275Z,2064
2018-08-22T10:07:18.234Z,2072
2018-08-22T10:08:34.127Z,2059
2018-08-22T10:09:50.124Z,2072
2018-08-22T10:11:06.059Z,2087
2018-08-22T10:12:22.136Z,2085
2018-08-22T10:13:38.118Z,2097
2018-08-22T10:14:54.069Z,2097
2018-08-22T10:16:10.024Z,2097
2018-08-22T10:17:26.110Z,2098
2018-08-22T10:18:42.076Z,2089
2018-08-22T10:19:58.010Z,2085
2018-08-22T10:21:13.957Z,2116
2018-08-22T10:22:29.902Z,2098
2018-08-22T10:23:45.840Z,2098
2018-08-22T10:25:01.774Z,2092
2018-08-22T10:26:17.799Z,2069
2018-08-22T10:27:33.853Z,2097
2018-08-22T10:28:49.817Z,2085
2018-08-22T10:30:05.762Z,2087
2018-08-22T10:31:21.799Z,2070
2018-08-22T10:32:37.961Z,2090
2018-08-22T10:33:53.786Z,2084
2018-08-22T10:35:09.747Z,2116
2018-08-22T10:36:25.627Z,2111
2018-08-22T10:37:41.589Z,2114
2018-08-22T10:38:57.494Z,2118
2018-08-22T10:40:13.378Z,2123
2018-08-22T10:41:29.318Z,2147
2018-08-22T10:42:45.323Z,2140
2018-08-22T10:44:01.224Z,2114
2018-08-22T10:45:17.144Z,2133
2018-08-22T10:46:33.089Z,2149
2018-08-22T10:47:49.044Z,2137
2018-08-22T10:49:05.094Z,2180
2018-08-22T10:50:21.066Z,2161
2018-08-22T10:51:37.006Z,2177
2018-08-22T10:52:52.947Z,2155
2018-08-22T10:54:08.984Z,2205
2018-08-22T10:55:24.907Z,2203
2018-08-22T10:56:40.819Z,2215
2018-08-22T10:57:56.747Z,2216
2018-08-22T10:59:12.661Z,2193
2018-08-22T11:00:28.602Z,2174
2018-08-22T11:01:44.651Z,2242
2018-08-22T11:03:00.578Z,2240
2018-08-22T11:04:16.497Z,2243
2018-08-22T11:05:32.463Z,2217
2018-08-22T11:06:48.398Z,2242
2018-08-22T11:08:04.459Z,2234
2018-08-22T11:09:20.355Z,2252
2018-08-22T11:10:36.270Z,2268
2018-08-22T11:11:52.326Z,2250
2018-08-22T11:13:08.298Z,2244
2018-08-22T11:14:24.200Z,2270
2018-08-22T11:15:40.113Z,2272
2018-08-22T11:16:56.017Z,2277
2018-08-22T11:18:11.961Z,2270
2018-08-22T11:19:28.028Z,2279
2018-08-22T11:20:44.051Z,2296
2018-08-22T11:21:59.975Z,2237
2018-08-22T11:23:15.911Z,2287
2018-08-22T11:24:31.896Z,2289
2018-08-22T11:25:47.804Z,2298
2018-08-22T11:27:03.762Z,2298
2018-08-22T11:28:19.724Z,2298
2018-08-22T11:29:35.620Z,2303
2018-08-22T11:30:51.502Z,2302
2018-08-22T11:32:07.435Z,2303
2018-08-22T11:33:23.466Z,2312
2018-08-22T11:34:39.355Z,2321
2018-08-22T11:35:55.284Z,2320
2018-08-22T11:37:11.202Z,2317
2018-08-22T11:38:28.116Z,2324
2018-08-22T11:39:44.056Z,2321
2018-08-22T11:41:00.047Z,2336
2018-08-22T11:42:16.024Z,2339
2018-08-22T11:43:31.945Z,2354
2018-08-22T11:44:47.975Z,2359
2018-08-22T11:46:03.927Z,2347
2018-08-22T11:47:19.837Z,2326
2018-08-22T11:48:35.811Z,2343
2018-08-22T11:49:51.714Z,2328
2018-08-22T11:51:07.642Z,2325
2018-08-22T11:52:23.582Z,2334
2018-08-22T11:53:39.619Z,2336
2018-08-22T11:54:55.526Z,2334
2018-08-22T11:56:11.519Z,2333
2018-08-22T11:57:27.360Z,2328
2018-08-22T11:58:43.240Z,2346
2018-08-22T11:59:59.246Z,2339
2018-08-22T12:01:15.244Z,2322
2018-08-22T12:02:31.135Z,2350
2018-08-22T12:03:47.084Z,2362
2018-08-22T12:05:03.018Z,2342
2018-08-22T12:06:19.084Z,2347
2018-08-22T12:07:35.082Z,2359
2018-08-22T12:08:51.005Z,2338
2018-08-22T12:10:06.937Z,2337
2018-08-22T12:11:22.906Z,2355
2018-08-22T12:12:38.814Z,2341
2018-08-22T12:13:54.715Z,2358
2018-08-22T12:15:10.658Z,2347
2018-08-22T12:16:26.574Z,2372
2018-08-22T12:17:42.516Z,2355
2018-08-22T12:18:58.429Z,2363
2018-08-22T12:20:14.326Z,2352
2018-08-22T12:21:30.249Z,2370
2018-08-22T12:22:46.249Z,2377
2018-08-22T12:24:02.133Z,2381
2018-08-22T12:25:18.125Z,2362
2018-08-22T12:26:34.115Z,2343
2018-08-22T12:27:50.025Z,2372
2018-08-22T12:29:05.921Z,2389
2018-08-22T12:30:21.844Z,2393
2018-08-22T12:31:37.717Z,2351
2018-08-22T12:32:53.616Z,2404
2018-08-22T12:34:09.600Z,2395
2018-08-22T12:35:25.595Z,2391
2018-08-22T12:36:41.516Z,2413
2018-08-22T12:37:57.420Z,2413
2018-08-22T12:39:13.333Z,2411
2018-08-22T12:40:29.268Z,2401
2018-08-22T12:41:45.152Z,2418
2018-08-22T12:43:01.094Z,2399
2018-08-22T12:44:16.993Z,2425
2018-08-22T12:45:32.954Z,2429
2018-08-22T12:46:48.889Z,2434
2018-08-22T12:48:04.805Z,2439
2018-08-22T12:49:20.714Z,2444
2018-08-22T12:50:36.898Z,2437
2018-08-22T12:51:52.844Z,2458
2018-08-22T12:53:08.763Z,2451
2018-08-22T12:54:24.694Z,2480
2018-08-22T12:55:40.689Z,2436
2018-08-22T12:56:56.601Z,2451
2018-08-22T12:58:12.504Z,2463
2018-08-22T12:59:28.464Z,2450
2018-08-22T13:00:44.411Z,2476
2018-08-22T13:02:00.387Z,2455
2018-08-22T13:03:16.333Z,2460
2018-08-22T13:04:32.379Z,2469
2018-08-22T13:05:48.449Z,2491
2018-08-22T13:07:04.398Z,2467
2018-08-22T13:08:20.310Z,2478
2018-08-22T13:09:36.255Z,2478
2018-08-22T13:10:52.221Z,2482
2018-08-22T13:12:08.068Z,2474
2018-08-22T13:13:24.059Z,2476
2018-08-22T13:14:39.995Z,2484
2018-08-22T13:15:55.963Z,2476
2018-08-22T13:17:11.943Z,2457
2018-08-22T13:18:27.852Z,2474
2018-08-22T13:19:43.746Z,2473
2018-08-22T13:20:59.702Z,2440
2018-08-22T13:22:15.606Z,2471
2018-08-22T13:23:31.550Z,2463
2018-08-22T13:24:47.550Z,2441
2018-08-22T13:26:03.444Z,2483
2018-08-22T13:27:19.402Z,2447
2018-08-22T13:28:35.403Z,2476
2018-08-22T13:29:51.432Z,2479
2018-08-22T13:31:07.398Z,2475
2018-08-22T13:32:23.371Z,2480
2018-08-22T13:33:39.258Z,2476
2018-08-22T13:34:55.173Z,2470
2018-08-22T13:36:11.175Z,2475
2018-08-22T13:37:27.183Z,2487
2018-08-22T13:38:43.316Z,2473
2018-08-22T13:39:59.192Z,2466
2018-08-22T13:41:15.147Z,2468
2018-08-22T13:42:31.112Z,2449
2018-08-22T13:43:47.051Z,2482
2018-08-22T13:45:03.029Z,2482
2018-08-22T13:46:18.948Z,2416
2018-08-22T13:47:34.876Z,2477
2018-08-22T13:48:50.808Z,2465
2018-08-22T13:50:06.725Z,2425
2018-08-22T13:51:22.637Z,2467
2018-08-22T13:52:37.549Z,2476
2018-08-22T13:53:53.521Z,2463
2018-08-22T13:55:09.469Z,2481
2018-08-22T13:56:25.577Z,2468
2018-08-22T13:57:42.421Z,2481
2018-08-22T13:58:58.406Z,2454
2018-08-22T14:00:14.466Z,2465
2018-08-22T14:01:30.607Z,2473
2018-08-22T14:02:46.505Z,2453
2018-08-22T14:04:02.457Z,2470
2018-08-22T14:05:18.498Z,2468
2018-08-22T14:06:34.545Z,2479
2018-08-22T14:07:50.507Z,2466
2018-08-22T14:09:06.483Z,2469
2018-08-22T14:10:22.588Z,2451
2018-08-22T14:11:38.557Z,2456
2018-08-22T14:12:54.453Z,2453
2018-08-22T14:14:10.383Z,2438
2018-08-22T14:15:26.326Z,2394
2018-08-22T14:16:42.251Z,2461
2018-08-22T14:17:58.178Z,2455
2018-08-22T14:19:14.240Z,2446
2018-08-22T14:20:30.211Z,2438
2018-08-22T14:21:46.178Z,2374
2018-08-22T14:23:02.215Z,2377
2018-08-22T14:24:18.167Z,2379
2018-08-22T14:25:34.110Z,2401
2018-08-22T14:26:50.003Z,2368
2018-08-22T14:28:05.948Z,2337
2018-08-22T14:29:21.855Z,2363
2018-08-22T14:30:37.822Z,2361
2018-08-22T14:31:53.716Z,2359
2018-08-22T14:33:09.598Z,2365
2018-08-22T14:34:25.618Z,2346
2018-08-22T14:35:41.633Z,2360
2018-08-22T14:36:57.590Z,2352
2018-08-22T14:38:13.685Z,2353
2018-08-22T14:39:29.748Z,2338
2018-08-22T14:40:45.723Z,2338
2018-08-22T14:42:01.675Z,2342
2018-08-22T14:43:17.617Z,2352
2018-08-22T14:44:33.543Z,2331
2018-08-22T14:45:49.642Z,2336
2018-08-22T14:47:05.628Z,2305
2018-08-22T14:48:21.646Z,2311
2018-08-22T14:49:37.735Z,2319
2018-08-22T14:50:53.745Z,2289
2018-08-22T14:52:09.750Z,2309
2018-08-22T14:53:25.829Z,2302
2018-08-22T14:54:41.795Z,2294
2018-08-22T14:55:57.855Z,2274
2018-08-22T14:57:13.772Z,2280
2018-08-22T14:58:29.772Z,2282
2018-08-22T14:59:45.722Z,2260
2018-08-22T15:01:01.732Z,2259
2018-08-22T15:02:17.964Z,2253
2018-08-22T15:03:34.071Z,2249
2018-08-22T15:04:49.845Z,2258
2018-08-22T15:06:05.790Z,2260
2018-08-22T15:07:21.722Z,2249
2018-08-22T15:08:37.717Z,2241
2018-08-22T15:09:53.625Z,2225
2018-08-22T15:11:09.633Z,2166
2018-08-22T15:12:25.548Z,2212
2018-08-22T15:13:41.483Z,2206
2018-08-22T15:14:57.511Z,2202
2018-08-22T15:16:13.555Z,2195
2018-08-22T15:17:29.630Z,2179
2018-08-22T15:18:45.594Z,2182
2018-08-22T15:20:01.600Z,2165
2018-08-22T15:21:17.570Z,2113
2018-08-22T15:22:33.659Z,2169
2018-08-22T15:23:49.724Z,2154
2018-08-22T15:25:05.656Z,2151
2018-08-22T15:26:21.600Z,2129
2018-08-22T15:27:37.540Z,2124
2018-08-22T15:28:53.506Z,2114
2018-08-22T15:30:09.459Z,2101
2018-08-22T15:31:25.457Z,2116
2018-08-22T15:32:41.443Z,2092
2018-08-22T15:33:57.434Z,2073
2018-08-22T15:35:13.353Z,2068
2018-08-22T15:36:29.363Z,2062
2018-08-22T15:37:45.283Z,2049
2018-08-22T15:39:01.239Z,2045
2018-08-22T15:40:17.272Z,2028
2018-08-22T15:41:33.200Z,2011
2018-08-22T15:42:49.174Z,2005
2018-08-22T15:44:05.637Z,2010
2018-08-22T15:45:21.626Z,1990
2018-08-22T15:46:37.631Z,1978
2018-08-22T15:47:53.663Z,1958
2018-08-22T15:49:09.741Z,1958
2018-08-22T15:50:25.783Z,1944
2018-08-22T15:51:41.692Z,1941
2018-08-22T15:52:57.718Z,1938
2018-08-22T15:54:13.623Z,1919
2018-08-22T15:55:29.587Z,1879
2018-08-22T15:56:45.612Z,1896
2018-08-22T15:58:01.531Z,1871
2018-08-22T15:59:17.506Z,1866
2018-08-22T16:00:33.456Z,1849
2018-08-22T16:01:49.401Z,1837
2018-08-22T16:03:05.488Z,1827
2018-08-22T16:04:21.529Z,1822
2018-08-22T16:05:37.467Z,1809
2018-08-22T16:06:53.532Z,1803
2018-08-22T16:08:09.462Z,1790
2018-08-22T16:09:25.524Z,1785
2018-08-22T16:10:41.487Z,1769
2018-08-22T16:11:57.573Z,1755
2018-08-22T16:13:13.561Z,1738
2018-08-22T16:14:29.570Z,1732
2018-08-22T16:15:45.516Z,1729
2018-08-22T16:17:01.537Z,1725
2018-08-22T16:18:17.475Z,1710
2018-08-22T16:19:33.721Z,1700
2018-08-22T16:20:49.655Z,1690
2018-08-22T16:22:05.584Z,1679
2018-08-22T16:23:21.542Z,1660
2018-08-22T16:24:37.514Z,1649
2018-08-22T16:25:53.537Z,1630
2018-08-22T16:27:09.594Z,1614
2018-08-22T16:28:25.710Z,1601
2018-08-22T16:29:41.543Z,1586
2018-08-22T16:30:57.674Z,1563
2018-08-22T16:32:13.466Z,1548
2018-08-22T16:33:29.412Z,1533
2018-08-22T16:34:45.357Z,1516
2018-08-22T16:36:01.296Z,1510
2018-08-22T16:37:17.183Z,1495
2018-08-22T16:38:33.154Z,1483
2018-08-22T16:39:49.253Z,1460
2018-08-22T16:41:05.186Z,1449
2018-08-22T16:42:21.223Z,1436
2018-08-22T16:43:37.140Z,1413
2018-08-22T16:44:53.147Z,1395
2018-08-22T16:46:09.162Z,1374
2018-08-22T16:47:25.177Z,1356
2018-08-22T16:48:41.102Z,1338
2018-08-22T16:49:57.025Z,1326
2018-08-22T16:51:13.968Z,1306
2018-08-22T16:52:30.071Z,1294
2018-08-22T16:53:46.024Z,1268
2018-08-22T16:55:02.057Z,1247
2018-08-22T16:56:18.119Z,1254
2018-08-22T16:57:34.153Z,1221
2018-08-22T16:58:50.085Z,1203
2018-08-22T17:00:06.052Z,1186
2018-08-22T17:01:22.045Z,1171
2018-08-22T17:02:38.048Z,1153
2018-08-22T17:03:55.033Z,1135
2018-08-22T17:05:11.428Z,1121
2018-08-22T17:06:27.438Z,1097
2018-08-22T17:07:43.602Z,1075
2018-08-22T17:08:59.696Z,1052
2018-08-22T17:10:15.736Z,1029
2018-08-22T17:11:31.988Z,1006
2018-08-22T17:12:48.157Z,980
2018-08-22T17:14:04.253Z,951
2018-08-22T17:15:20.331Z,932
2018-08-22T17:16:36.301Z,906
2018-08-22T17:17:52.445Z,885
2018-08-22T17:19:08.581Z,862
2018-08-22T17:20:24.557Z,835
2018-08-22T17:21:40.610Z,815
2018-08-22T17:22:56.572Z,792
2018-08-22T17:24:12.605Z,768
2018-08-22T17:25:28.694Z,744
2018-08-22T17:26:44.773Z,719
2018-08-22T17:28:00.861Z,692
2018-08-22T17:29:16.955Z,667